createdAt,value
2018-12-21T00:00:48.337Z,58.82
2018-12-21T00:01:50.790Z,58.58
2018-12-21T00:02:53.228Z,58.64
2018-12-21T00:03:55.763Z,58.71
2018-12-21T00:04:58.330Z,58.80
2018-12-21T00:06:00.840Z,58.57
2018-12-21T00:07:03.296Z,58.55
2018-12-21T00:08:05.727Z,58.71
2018-12-21T00:09:08.159Z,58.63
2018-12-21T00:10:10.598Z,58.82
2018-12-21T00:11:13.050Z,58.87
2018-12-21T00:12:15.503Z,58.93
2018-12-21T00:13:17.970Z,58.38
2018-12-21T00:14:20.426Z,58.57
2018-12-21T00:15:22.868Z,58.72
2018-12-21T00:16:25.318Z,58.24
2018-12-21T00:17:34.591Z,58.21
2018-12-21T00:18:32.249Z,58.09
2018-12-21T00:19:34.676Z,58.25
2018-12-21T00:20:37.113Z,58.20
2018-12-21T00:21:39.582Z,57.96
2018-12-21T00:22:42.073Z,58.15
2018-12-21T00:23:44.507Z,57.90
2018-12-21T00:24:46.960Z,57.84
2018-12-21T00:25:49.403Z,57.72
2018-12-21T00:26:51.855Z,57.57
2018-12-21T00:27:54.290Z,57.76
2018-12-21T00:28:56.723Z,57.77
2018-12-21T00:29:59.161Z,57.68
2018-12-21T00:31:07.288Z,57.77
2018-12-21T00:32:15.491Z,57.85
2018-12-21T00:33:23.535Z,57.71
2018-12-21T00:34:31.786Z,57.23
2018-12-21T00:35:39.750Z,57.33
2018-12-21T00:36:47.866Z,57.46
2018-12-21T00:37:56.024Z,57.60
2018-12-21T00:39:04.160Z,57.75
2018-12-21T00:40:12.533Z,57.98
2018-12-21T00:41:14.950Z,58.13
2018-12-21T00:42:22.009Z,57.58
2018-12-21T00:43:28.371Z,57.47
2018-12-21T00:44:32.606Z,57.62
2018-12-21T00:45:36.636Z,57.33
2018-12-21T00:46:40.366Z,57.35
2018-12-21T00:47:42.821Z,57.72
2018-12-21T00:48:45.294Z,58.05
2018-12-21T00:49:47.810Z,57.85
2018-12-21T00:50:50.309Z,57.65
2018-12-21T00:51:52.760Z,57.84
2018-12-21T00:52:55.219Z,57.71
2018-12-21T00:53:57.678Z,57.96
2018-12-21T00:55:00.140Z,57.38
2018-12-21T00:56:02.581Z,57.45
2018-12-21T00:57:05.128Z,57.33
2018-12-21T00:58:07.592Z,57.77
2018-12-21T00:59:10.028Z,57.60
2018-12-21T01:00:17.375Z,57.40
2018-12-21T01:01:20.207Z,57.49
2018-12-21T01:02:22.672Z,57.46
2018-12-21T01:03:25.276Z,57.24
2018-12-21T01:04:27.708Z,57.21
2018-12-21T01:05:30.357Z,57.50
2018-12-21T01:06:32.847Z,57.68
2018-12-21T01:07:35.380Z,57.53
2018-12-21T01:08:37.901Z,57.55
2018-12-21T01:09:40.343Z,57.52
2018-12-21T01:10:42.870Z,57.15
2018-12-21T01:11:45.425Z,57.15
2018-12-21T01:12:47.901Z,57.46
2018-12-21T01:13:50.342Z,57.47
2018-12-21T01:14:52.806Z,57.48
2018-12-21T01:15:55.401Z,57.36
2018-12-21T01:16:57.832Z,57.32
2018-12-21T01:18:00.364Z,57.78
2018-12-21T01:19:02.799Z,57.12
2018-12-21T01:20:06.631Z,57.46
2018-12-21T01:21:11.089Z,57.33
2018-12-21T01:22:13.528Z,57.40
2018-12-21T01:23:15.991Z,56.80
2018-12-21T01:24:18.431Z,56.73
2018-12-21T01:25:20.856Z,56.61
2018-12-21T01:26:23.309Z,56.96
2018-12-21T01:27:26.132Z,57.28
2018-12-21T01:28:28.653Z,56.46
2018-12-21T01:29:31.173Z,56.49
2018-12-21T01:30:33.616Z,56.78
2018-12-21T01:31:36.074Z,56.49
2018-12-21T01:32:38.527Z,56.78
2018-12-21T01:33:41.004Z,56.48
2018-12-21T01:34:43.503Z,56.36
2018-12-21T01:35:45.988Z,56.39
2018-12-21T01:36:48.430Z,56.81
2018-12-21T01:37:50.883Z,56.78
2018-12-21T01:38:53.492Z,56.54
2018-12-21T01:39:55.936Z,56.99
2018-12-21T01:40:58.373Z,56.80
2018-12-21T01:42:00.944Z,56.33
2018-12-21T01:43:03.563Z,56.69
2018-12-21T01:44:06.012Z,56.73
2018-12-21T01:45:08.457Z,56.87
2018-12-21T01:46:10.891Z,56.71
2018-12-21T01:47:13.423Z,56.39
2018-12-21T01:48:15.877Z,56.58
2018-12-21T01:49:18.308Z,56.79
2018-12-21T01:50:20.764Z,56.41
2018-12-21T01:51:23.217Z,56.75
2018-12-21T01:52:25.664Z,56.60
2018-12-21T01:53:28.172Z,56.42
2018-12-21T01:54:30.614Z,56.79
2018-12-21T01:55:33.068Z,56.57
2018-12-21T01:56:35.504Z,56.60
2018-12-21T01:57:37.949Z,56.23
2018-12-21T01:58:40.407Z,56.44
2018-12-21T01:59:42.858Z,56.76
2018-12-21T02:00:45.405Z,56.46
2018-12-21T02:01:47.952Z,56.31
2018-12-21T02:02:50.402Z,56.77
2018-12-21T02:03:52.867Z,56.13
2018-12-21T02:04:55.320Z,56.77
2018-12-21T02:05:57.752Z,56.53
2018-12-21T02:07:00.182Z,56.42
2018-12-21T02:08:02.633Z,56.75
2018-12-21T02:09:06.249Z,56.21
2018-12-21T02:10:08.796Z,56.21
2018-12-21T02:11:11.268Z,56.56
2018-12-21T02:12:13.720Z,56.22
2018-12-21T02:13:16.153Z,56.30
2018-12-21T02:14:18.612Z,56.11
2018-12-21T02:15:21.084Z,56.54
2018-12-21T02:16:23.523Z,56.19
2018-12-21T02:17:25.965Z,56.23
2018-12-21T02:18:28.398Z,56.25
2018-12-21T02:19:30.864Z,56.45
2018-12-21T02:20:33.329Z,56.34
2018-12-21T02:21:36.050Z,56.42
2018-12-21T02:22:38.490Z,56.31
2018-12-21T02:23:40.925Z,56.25
2018-12-21T02:24:43.388Z,56.06
2018-12-21T02:25:45.873Z,56.42
2018-12-21T02:26:48.315Z,56.04
2018-12-21T02:27:50.833Z,56.46
2018-12-21T02:28:53.272Z,56.58
2018-12-21T02:29:55.727Z,56.56
2018-12-21T02:30:58.183Z,56.23
2018-12-21T02:32:00.608Z,56.09
2018-12-21T02:33:03.039Z,56.17
2018-12-21T02:34:05.557Z,56.33
2018-12-21T02:35:08.027Z,56.09
2018-12-21T02:36:10.477Z,56.19
2018-12-21T02:37:12.913Z,56.40
2018-12-21T02:38:15.347Z,56.19
2018-12-21T02:39:17.839Z,56.01
2018-12-21T02:40:20.304Z,56.28
2018-12-21T02:41:22.731Z,56.10
2018-12-21T02:42:25.171Z,56.08
2018-12-21T02:43:27.628Z,56.30
2018-12-21T02:44:30.060Z,56.14
2018-12-21T02:45:32.533Z,55.96
2018-12-21T02:46:34.990Z,56.38
2018-12-21T02:47:37.424Z,55.87
2018-12-21T02:48:39.863Z,56.24
2018-12-21T02:49:42.302Z,56.40
2018-12-21T02:50:44.753Z,56.15
2018-12-21T02:51:47.208Z,56.01
2018-12-21T02:52:49.649Z,56.07
2018-12-21T02:53:52.136Z,56.03
2018-12-21T02:54:54.571Z,55.91
2018-12-21T02:55:57.039Z,56.27
2018-12-21T02:56:59.483Z,55.79
2018-12-21T02:58:01.938Z,56.22
2018-12-21T02:59:04.381Z,55.82
2018-12-21T03:00:08.201Z,56.22
2018-12-21T03:01:10.657Z,56.47
2018-12-21T03:02:13.118Z,56.22
2018-12-21T03:03:15.581Z,55.95
2018-12-21T03:04:18.045Z,55.86
2018-12-21T03:05:20.487Z,55.91
2018-12-21T03:06:22.950Z,56.21
2018-12-21T03:07:25.411Z,55.92
2018-12-21T03:08:27.844Z,55.90
2018-12-21T03:09:30.359Z,55.67
2018-12-21T03:10:32.807Z,55.82
2018-12-21T03:11:35.269Z,55.68
2018-12-21T03:12:37.727Z,55.80
2018-12-21T03:13:40.163Z,55.98
2018-12-21T03:14:42.638Z,55.73
2018-12-21T03:15:45.139Z,56.21
2018-12-21T03:16:47.595Z,55.81
2018-12-21T03:17:50.041Z,56.30
2018-12-21T03:18:52.502Z,56.06
2018-12-21T03:19:54.939Z,56.15
2018-12-21T03:20:57.419Z,55.69
2018-12-21T03:21:59.872Z,55.76
2018-12-21T03:23:02.320Z,56.11
2018-12-21T03:24:04.780Z,55.79
2018-12-21T03:25:07.323Z,55.86
2018-12-21T03:26:09.788Z,55.57
2018-12-21T03:27:12.246Z,55.62
2018-12-21T03:28:14.672Z,56.06
2018-12-21T03:29:17.107Z,55.68
2018-12-21T03:30:19.553Z,55.69
2018-12-21T03:31:22.102Z,55.72
2018-12-21T03:32:24.564Z,55.86
2018-12-21T03:33:27.167Z,55.75
2018-12-21T03:34:29.720Z,56.00
2018-12-21T03:35:32.264Z,55.80
2018-12-21T03:36:34.701Z,56.05
2018-12-21T03:37:37.164Z,55.85
2018-12-21T03:38:39.615Z,55.74
2018-12-21T03:39:42.096Z,56.01
2018-12-21T03:40:44.545Z,56.22
2018-12-21T03:41:46.980Z,56.11
2018-12-21T03:42:49.446Z,56.20
2018-12-21T03:43:51.991Z,56.47
2018-12-21T03:44:54.432Z,56.07
2018-12-21T03:45:56.863Z,56.19
2018-12-21T03:46:59.301Z,56.25
2018-12-21T03:48:01.784Z,55.96
2018-12-21T03:49:04.257Z,56.24
2018-12-21T03:50:06.863Z,56.34
2018-12-21T03:51:09.304Z,56.32
2018-12-21T03:52:11.749Z,56.27
2018-12-21T03:53:14.191Z,56.13
2018-12-21T03:54:16.642Z,56.36
2018-12-21T03:55:19.071Z,55.80
2018-12-21T03:56:21.523Z,56.50
2018-12-21T03:57:23.968Z,56.06
2018-12-21T03:58:26.423Z,56.46
2018-12-21T03:59:28.887Z,55.88
2018-12-21T04:00:31.323Z,55.89
2018-12-21T04:01:33.768Z,56.17
2018-12-21T04:02:36.208Z,55.95
2018-12-21T04:03:38.676Z,56.52
2018-12-21T04:04:41.166Z,56.12
2018-12-21T04:05:43.679Z,56.77
2018-12-21T04:06:46.131Z,56.52
2018-12-21T04:07:48.579Z,56.97
2018-12-21T04:08:51.047Z,56.90
2018-12-21T04:09:53.483Z,56.99
2018-12-21T04:10:55.933Z,57.18
2018-12-21T04:11:58.379Z,57.41
2018-12-21T04:13:00.826Z,57.13
2018-12-21T04:14:03.397Z,56.91
2018-12-21T04:15:05.936Z,57.41
2018-12-21T04:16:08.394Z,57.27
2018-12-21T04:17:10.833Z,57.00
2018-12-21T04:18:13.282Z,57.38
2018-12-21T04:19:15.743Z,57.38
2018-12-21T04:20:18.188Z,57.31
2018-12-21T04:21:20.631Z,57.16
2018-12-21T04:22:23.065Z,56.82
2018-12-21T04:23:25.502Z,56.81
2018-12-21T04:24:27.960Z,56.73
2018-12-21T04:25:30.409Z,56.73
2018-12-21T04:26:32.880Z,56.97
2018-12-21T04:27:35.335Z,56.86
2018-12-21T04:28:37.771Z,57.13
2018-12-21T04:29:40.723Z,56.58
2018-12-21T04:30:43.156Z,56.74
2018-12-21T04:31:45.605Z,56.46
2018-12-21T04:32:48.045Z,56.34
2018-12-21T04:33:50.597Z,56.56
2018-12-21T04:34:53.056Z,56.26
2018-12-21T04:35:55.498Z,56.34
2018-12-21T04:36:57.948Z,56.29
2018-12-21T04:38:00.387Z,56.26
2018-12-21T04:39:02.830Z,56.26
2018-12-21T04:40:06.692Z,56.85
2018-12-21T04:41:09.129Z,56.97
2018-12-21T04:42:11.574Z,56.87
2018-12-21T04:43:14.015Z,56.68
2018-12-21T04:44:16.448Z,56.94
2018-12-21T04:45:18.890Z,57.09
2018-12-21T04:46:21.341Z,57.22
2018-12-21T04:47:23.774Z,57.43
2018-12-21T04:48:26.205Z,57.01
2018-12-21T04:49:28.664Z,57.24
2018-12-21T04:50:31.114Z,56.87
2018-12-21T04:51:33.572Z,57.28
2018-12-21T04:52:43.176Z,56.98
2018-12-21T04:53:40.551Z,57.21
2018-12-21T04:54:43.015Z,56.86
2018-12-21T04:55:51.204Z,56.79
2018-12-21T04:56:53.640Z,57.17
2018-12-21T04:57:56.069Z,57.41
2018-12-21T04:58:58.499Z,57.03
2018-12-21T05:00:00.964Z,56.89
2018-12-21T05:01:03.447Z,57.24
2018-12-21T05:02:06.060Z,57.13
2018-12-21T05:03:08.531Z,57.09
2018-12-21T05:04:19.793Z,57.09
2018-12-21T05:05:16.427Z,57.07
2018-12-21T05:06:18.857Z,56.78
2018-12-21T05:07:21.310Z,57.17
2018-12-21T05:08:23.759Z,56.94
2018-12-21T05:09:26.190Z,56.75
2018-12-21T05:10:28.639Z,57.05
2018-12-21T05:11:31.072Z,57.00
2018-12-21T05:12:33.516Z,57.05
2018-12-21T05:13:35.948Z,56.89
2018-12-21T05:14:38.387Z,57.19
2018-12-21T05:15:40.828Z,57.15
2018-12-21T05:16:43.359Z,56.92
2018-12-21T05:17:45.802Z,57.06
2018-12-21T05:18:48.247Z,57.27
2018-12-21T05:19:50.684Z,57.19
2018-12-21T05:20:53.128Z,56.82
2018-12-21T05:21:55.623Z,57.04
2018-12-21T05:22:58.068Z,57.22
2018-12-21T05:24:00.496Z,56.93
2018-12-21T05:25:02.935Z,57.29
2018-12-21T05:26:05.500Z,57.28
2018-12-21T05:27:07.931Z,56.91
2018-12-21T05:28:10.365Z,56.92
2018-12-21T05:29:12.802Z,57.09
2018-12-21T05:30:15.358Z,57.08
2018-12-21T05:31:17.823Z,57.41
2018-12-21T05:32:20.275Z,57.71
2018-12-21T05:33:22.717Z,57.66
2018-12-21T05:34:25.162Z,57.03
2018-12-21T05:35:27.598Z,57.42
2018-12-21T05:36:30.081Z,57.69
2018-12-21T05:37:32.556Z,57.41
2018-12-21T05:38:35.112Z,57.49
2018-12-21T05:39:37.595Z,57.25
2018-12-21T05:40:41.618Z,57.31
2018-12-21T05:41:44.078Z,57.53
2018-12-21T05:42:46.545Z,57.55
2018-12-21T05:43:48.985Z,57.59
2018-12-21T05:44:51.428Z,57.08
2018-12-21T05:45:53.868Z,57.34
2018-12-21T05:46:56.315Z,57.61
2018-12-21T05:47:58.765Z,57.52
2018-12-21T05:49:01.216Z,57.77
2018-12-21T05:50:04.205Z,57.49
2018-12-21T05:51:06.654Z,57.77
2018-12-21T05:52:09.114Z,58.11
2018-12-21T05:53:11.567Z,58.30
2018-12-21T05:54:13.999Z,58.36
2018-12-21T05:55:16.430Z,57.99
2018-12-21T05:56:18.885Z,58.77
2018-12-21T05:57:21.346Z,58.78
2018-12-21T05:58:23.806Z,58.60
2018-12-21T05:59:26.246Z,57.90
2018-12-21T06:00:28.731Z,58.51
2018-12-21T06:01:31.214Z,58.41
2018-12-21T06:02:33.697Z,57.88
2018-12-21T06:03:36.196Z,58.32
2018-12-21T06:04:38.627Z,58.58
2018-12-21T06:05:41.058Z,58.16
2018-12-21T06:06:43.496Z,58.49
2018-12-21T06:07:45.955Z,58.34
2018-12-21T06:08:48.452Z,57.74
2018-12-21T06:09:50.905Z,58.10
2018-12-21T06:10:53.342Z,57.70
2018-12-21T06:11:55.779Z,58.36
2018-12-21T06:12:58.246Z,58.23
2018-12-21T06:14:01.167Z,58.17
2018-12-21T06:15:04.534Z,58.31
2018-12-21T06:16:06.996Z,58.31
2018-12-21T06:17:09.444Z,58.01
2018-12-21T06:18:11.900Z,57.74
2018-12-21T06:19:14.345Z,58.31
2018-12-21T06:20:16.800Z,58.57
2018-12-21T06:21:19.238Z,58.28
2018-12-21T06:22:21.679Z,58.19
2018-12-21T06:23:24.135Z,57.99
2018-12-21T06:24:26.591Z,57.59
2018-12-21T06:25:29.048Z,57.84
2018-12-21T06:26:31.500Z,57.94
2018-12-21T06:27:33.939Z,57.94
2018-12-21T06:28:36.408Z,57.81
2018-12-21T06:29:38.888Z,57.45
2018-12-21T06:30:41.410Z,57.58
2018-12-21T06:31:43.892Z,56.84
2018-12-21T06:32:46.361Z,57.07
2018-12-21T06:33:49.028Z,56.76
2018-12-21T06:34:51.466Z,57.17
2018-12-21T06:35:53.944Z,57.45
2018-12-21T06:36:56.402Z,57.41
2018-12-21T06:37:58.844Z,56.92
2018-12-21T06:39:01.307Z,57.12
2018-12-21T06:40:04.744Z,57.19
2018-12-21T06:41:07.188Z,57.54
2018-12-21T06:42:09.631Z,57.96
2018-12-21T06:43:12.077Z,57.59
2018-12-21T06:44:14.540Z,57.98
2018-12-21T06:45:16.992Z,57.21
2018-12-21T06:46:19.439Z,57.54
2018-12-21T06:47:21.892Z,57.36
2018-12-21T06:48:24.339Z,57.22
2018-12-21T06:49:26.811Z,57.25
2018-12-21T06:50:29.295Z,56.89
2018-12-21T06:51:31.731Z,56.99
2018-12-21T06:52:34.194Z,56.54
2018-12-21T06:53:36.783Z,56.87
2018-12-21T06:54:39.279Z,56.65
2018-12-21T06:55:41.752Z,56.52
2018-12-21T06:56:44.220Z,56.57
2018-12-21T06:57:46.664Z,56.85
2018-12-21T06:58:49.136Z,56.64
2018-12-21T06:59:51.601Z,56.38
2018-12-21T07:00:54.041Z,56.67
2018-12-21T07:01:56.487Z,56.56
2018-12-21T07:02:59.129Z,56.30
2018-12-21T07:04:01.715Z,56.52
2018-12-21T07:05:05.782Z,56.39
2018-12-21T07:06:08.235Z,56.53
2018-12-21T07:07:10.671Z,56.37
2018-12-21T07:08:13.108Z,55.86
2018-12-21T07:09:15.535Z,56.03
2018-12-21T07:10:17.995Z,56.09
2018-12-21T07:11:20.443Z,55.53
2018-12-21T07:12:22.958Z,55.28
2018-12-21T07:13:25.400Z,55.96
2018-12-21T07:14:27.837Z,55.31
2018-12-21T07:15:30.323Z,55.46
2018-12-21T07:16:32.790Z,55.56
2018-12-21T07:17:35.248Z,55.46
2018-12-21T07:18:37.689Z,55.53
2018-12-21T07:19:40.119Z,55.60
2018-12-21T07:20:42.687Z,55.43
2018-12-21T07:21:45.146Z,55.34
2018-12-21T07:22:47.588Z,55.73
2018-12-21T07:23:50.045Z,55.57
2018-12-21T07:24:52.511Z,56.03
2018-12-21T07:25:55.085Z,55.98
2018-12-21T07:26:57.589Z,55.71
2018-12-21T07:28:00.033Z,55.76
2018-12-21T07:29:02.477Z,55.84
2018-12-21T07:30:07.790Z,55.75
2018-12-21T07:31:10.331Z,55.46
2018-12-21T07:32:12.815Z,55.71
2018-12-21T07:33:15.250Z,56.15
2018-12-21T07:34:17.699Z,55.99
2018-12-21T07:35:20.156Z,55.76
2018-12-21T07:36:22.624Z,55.63
2018-12-21T07:37:25.155Z,55.33
2018-12-21T07:38:27.737Z,55.28
2018-12-21T07:39:32.286Z,55.47
2018-12-21T07:40:34.742Z,55.91
2018-12-21T07:41:37.224Z,55.64
2018-12-21T07:42:39.704Z,55.53
2018-12-21T07:43:42.163Z,55.29
2018-12-21T07:44:44.591Z,55.12
2018-12-21T07:45:47.037Z,55.40
2018-12-21T07:46:49.515Z,55.26
2018-12-21T07:47:52.005Z,55.18
2018-12-21T07:48:54.460Z,55.20
2018-12-21T07:49:56.901Z,54.97
2018-12-21T07:50:59.388Z,54.48
2018-12-21T07:52:01.860Z,54.53
2018-12-21T07:53:04.352Z,54.54
2018-12-21T07:54:06.801Z,54.49
2018-12-21T07:55:09.233Z,54.97
2018-12-21T07:56:11.731Z,55.11
2018-12-21T07:57:14.189Z,55.42
2018-12-21T07:58:16.680Z,55.19
2018-12-21T07:59:19.137Z,55.48
2018-12-21T08:00:21.683Z,54.93
2018-12-21T08:01:24.155Z,55.39
2018-12-21T08:02:26.663Z,55.47
2018-12-21T08:03:29.115Z,55.33
2018-12-21T08:04:31.567Z,54.65
2018-12-21T08:05:34.129Z,54.87
2018-12-21T08:06:36.562Z,54.89
2018-12-21T08:07:39.028Z,55.24
2018-12-21T08:08:41.499Z,55.30
2018-12-21T08:09:43.970Z,55.22
2018-12-21T08:10:46.413Z,55.09
2018-12-21T08:11:48.874Z,55.18
2018-12-21T08:12:51.370Z,54.87
2018-12-21T08:13:53.846Z,54.91
2018-12-21T08:14:56.304Z,54.99
2018-12-21T08:15:58.771Z,55.14
2018-12-21T08:17:01.215Z,55.22
2018-12-21T08:18:03.907Z,55.04
2018-12-21T08:19:06.379Z,54.90
2018-12-21T08:20:09.033Z,55.26
2018-12-21T08:21:11.752Z,55.01
2018-12-21T08:22:14.229Z,54.80
2018-12-21T08:23:16.720Z,54.84
2018-12-21T08:24:19.201Z,55.16
2018-12-21T08:25:21.984Z,54.10
2018-12-21T08:26:24.571Z,54.58
2018-12-21T08:27:27.027Z,53.43
2018-12-21T08:28:29.620Z,54.56
2018-12-21T08:29:32.063Z,53.50
2018-12-21T08:30:34.522Z,53.76
2018-12-21T08:31:37.083Z,53.44
2018-12-21T08:32:39.639Z,54.48
2018-12-21T08:33:42.095Z,54.40
2018-12-21T08:34:44.523Z,54.53
2018-12-21T08:35:47.020Z,53.42
2018-12-21T08:36:49.474Z,53.71
2018-12-21T08:37:51.899Z,54.25
2018-12-21T08:38:54.353Z,53.29
2018-12-21T08:39:56.810Z,56.32
2018-12-21T08:40:59.263Z,55.41
2018-12-21T08:42:01.715Z,55.52
2018-12-21T08:43:04.145Z,53.17
2018-12-21T08:44:06.606Z,52.92
2018-12-21T08:45:09.137Z,51.93
2018-12-21T08:46:11.875Z,51.37
2018-12-21T08:47:14.344Z,52.17
2018-12-21T08:48:16.820Z,51.47
2018-12-21T08:49:19.796Z,50.81
2018-12-21T08:50:22.327Z,50.71
2018-12-21T08:51:24.898Z,50.80
2018-12-21T08:52:27.385Z,50.39
2018-12-21T08:53:29.851Z,50.47
2018-12-21T08:54:32.305Z,51.14
2018-12-21T08:55:35.537Z,51.31
2018-12-21T08:56:42.611Z,50.57
2018-12-21T08:57:45.041Z,49.58
2018-12-21T08:58:47.547Z,49.68
2018-12-21T08:59:50.095Z,50.20
2018-12-21T09:00:52.563Z,49.99
2018-12-21T09:01:55.069Z,48.27
2018-12-21T09:02:57.710Z,49.05
2018-12-21T09:04:00.200Z,49.04
2018-12-21T09:05:08.243Z,49.46
2018-12-21T09:06:18.383Z,49.22
2018-12-21T09:07:16.095Z,49.26
2018-12-21T09:08:18.536Z,48.27
2018-12-21T09:09:21.031Z,49.13
2018-12-21T09:10:23.674Z,49.33
2018-12-21T09:11:26.123Z,49.71
2018-12-21T09:12:28.606Z,49.31
2018-12-21T09:13:31.349Z,48.99
2018-12-21T09:14:33.830Z,49.23
2018-12-21T09:15:36.283Z,48.88
2018-12-21T09:16:38.966Z,49.24
2018-12-21T09:17:41.551Z,48.80
2018-12-21T09:18:44.018Z,49.12
2018-12-21T09:19:46.471Z,48.48
2018-12-21T09:20:48.914Z,48.03
2018-12-21T09:21:51.374Z,47.27
2018-12-21T09:22:53.825Z,47.48
2018-12-21T09:24:01.113Z,47.31
2018-12-21T09:25:00.823Z,47.69
2018-12-21T09:26:03.387Z,46.84
2018-12-21T09:27:05.894Z,47.62
2018-12-21T09:28:09.177Z,46.65
2018-12-21T09:29:11.681Z,46.88
2018-12-21T09:30:14.186Z,46.42
2018-12-21T09:31:16.644Z,46.12
2018-12-21T09:32:19.146Z,46.40
2018-12-21T09:33:21.587Z,45.81
2018-12-21T09:34:24.085Z,46.19
2018-12-21T09:35:26.513Z,45.72
2018-12-21T09:36:29.028Z,47.26
2018-12-21T09:37:31.574Z,48.98
2018-12-21T09:38:34.019Z,50.21
2018-12-21T09:39:36.474Z,50.98
2018-12-21T09:40:39.010Z,52.83
2018-12-21T09:41:41.591Z,53.56
2018-12-21T09:42:44.108Z,53.77
2018-12-21T09:43:46.804Z,53.54
2018-12-21T09:44:52.629Z,54.61
2018-12-21T09:45:53.774Z,54.91
2018-12-21T09:46:56.300Z,54.86
2018-12-21T09:47:58.744Z,55.22
2018-12-21T09:49:02.498Z,55.29
2018-12-21T09:50:06.196Z,56.00
2018-12-21T09:51:08.672Z,55.70
2018-12-21T09:52:11.227Z,56.28
2018-12-21T09:53:13.699Z,57.23
2018-12-21T09:54:16.166Z,56.83
2018-12-21T09:55:18.595Z,57.75
2018-12-21T09:56:21.160Z,58.10
2018-12-21T09:57:23.627Z,58.07
2018-12-21T09:58:26.159Z,57.96
2018-12-21T09:59:28.607Z,58.07
2018-12-21T10:00:31.078Z,58.98
2018-12-21T10:01:33.526Z,58.92
2018-12-21T10:02:36.154Z,59.09
2018-12-21T10:03:38.756Z,59.14
2018-12-21T10:04:41.233Z,59.43
2018-12-21T10:05:43.710Z,59.98
2018-12-21T10:06:46.173Z,61.86
2018-12-21T10:07:48.998Z,60.66
2018-12-21T10:08:51.607Z,60.59
2018-12-21T10:09:54.209Z,60.61
2018-12-21T10:10:56.653Z,60.65
2018-12-21T10:11:59.103Z,60.34
2018-12-21T10:13:01.851Z,60.61
2018-12-21T10:14:04.515Z,61.74
2018-12-21T10:15:08.167Z,61.10
2018-12-21T10:16:10.775Z,61.25
2018-12-21T10:17:13.309Z,60.99
2018-12-21T10:18:15.805Z,61.37
2018-12-21T10:19:18.594Z,61.83
2018-12-21T10:20:21.213Z,62.07
2018-12-21T10:21:23.683Z,61.86
2018-12-21T10:22:26.335Z,61.87
2018-12-21T10:23:28.812Z,62.05
2018-12-21T10:24:31.290Z,62.22
2018-12-21T10:25:33.734Z,62.28
2018-12-21T10:26:36.259Z,62.24
2018-12-21T10:27:38.973Z,62.52
2018-12-21T10:28:41.536Z,62.13
2018-12-21T10:29:44.073Z,62.44
2018-12-21T10:30:47.275Z,62.69
2018-12-21T10:31:50.247Z,62.47
2018-12-21T10:32:52.811Z,62.98
2018-12-21T10:33:55.315Z,62.54
2018-12-21T10:34:57.769Z,62.81
2018-12-21T10:36:00.212Z,62.47
2018-12-21T10:37:02.702Z,63.28
2018-12-21T10:38:05.143Z,63.01
2018-12-21T10:39:07.711Z,63.39
2018-12-21T10:40:10.357Z,63.51
2018-12-21T10:41:12.805Z,63.59
2018-12-21T10:42:15.256Z,63.15
2018-12-21T10:43:17.690Z,63.68
2018-12-21T10:44:20.344Z,63.62
2018-12-21T10:45:22.841Z,64.03
2018-12-21T10:46:25.312Z,64.34
2018-12-21T10:47:27.754Z,64.29
2018-12-21T10:48:30.233Z,64.10
2018-12-21T10:49:32.721Z,65.19
2018-12-21T10:50:36.454Z,64.33
2018-12-21T10:51:41.613Z,64.50
2018-12-21T10:52:45.890Z,64.42
2018-12-21T10:53:48.407Z,64.43
2018-12-21T10:54:51.692Z,64.06
2018-12-21T10:55:54.244Z,64.64
2018-12-21T10:56:56.813Z,64.78
2018-12-21T10:57:59.788Z,65.31
2018-12-21T10:59:02.314Z,64.40
2018-12-21T11:00:07.440Z,65.71
2018-12-21T11:01:10.318Z,64.81
2018-12-21T11:02:13.123Z,65.71
2018-12-21T11:03:15.819Z,66.13
2018-12-21T11:04:19.379Z,65.43
2018-12-21T11:05:22.252Z,66.14
2018-12-21T11:06:24.795Z,66.10
2018-12-21T11:07:27.465Z,66.12
2018-12-21T11:08:30.290Z,66.05
2018-12-21T11:09:32.875Z,66.12
2018-12-21T11:10:35.328Z,65.57
2018-12-21T11:11:37.817Z,66.13
2018-12-21T11:12:40.306Z,66.59
2018-12-21T11:13:42.740Z,65.74
2018-12-21T11:14:45.264Z,67.26
2018-12-21T11:15:47.848Z,66.55
2018-12-21T11:16:50.367Z,66.18
2018-12-21T11:17:52.811Z,67.64
2018-12-21T11:18:55.343Z,67.45
2018-12-21T11:19:57.876Z,68.27
2018-12-21T11:21:00.432Z,67.45
2018-12-21T11:22:02.884Z,67.35
2018-12-21T11:23:05.402Z,67.50
2018-12-21T11:24:09.075Z,66.94
2018-12-21T11:25:11.691Z,67.11
2018-12-21T11:26:14.166Z,66.89
2018-12-21T11:27:16.670Z,66.76
2018-12-21T11:28:25.319Z,66.77
2018-12-21T11:29:23.818Z,67.37
2018-12-21T11:30:26.443Z,67.35
2018-12-21T11:31:28.978Z,67.98
2018-12-21T11:32:31.448Z,67.89
2018-12-21T11:33:34.018Z,67.66
2018-12-21T11:34:36.471Z,67.38
2018-12-21T11:35:39.086Z,67.54
2018-12-21T11:36:41.583Z,67.47
2018-12-21T11:37:44.040Z,67.12
2018-12-21T11:38:46.719Z,66.53
2018-12-21T11:39:49.557Z,66.66
2018-12-21T11:40:51.991Z,66.41
2018-12-21T11:41:54.458Z,66.07
2018-12-21T11:42:56.931Z,66.47
2018-12-21T11:43:59.436Z,67.12
2018-12-21T11:45:01.872Z,67.18
2018-12-21T11:46:04.332Z,66.71
2018-12-21T11:47:07.671Z,66.77
2018-12-21T11:48:10.125Z,67.55
2018-12-21T11:49:12.611Z,67.45
2018-12-21T11:50:15.058Z,67.44
2018-12-21T11:51:17.570Z,67.58
2018-12-21T11:52:20.059Z,66.98
2018-12-21T11:53:22.515Z,67.46
2018-12-21T11:54:24.947Z,66.99
2018-12-21T11:55:27.407Z,67.54
2018-12-21T11:56:29.844Z,66.97
2018-12-21T11:57:32.503Z,66.62
2018-12-21T11:58:34.969Z,67.20
2018-12-21T11:59:44.672Z,66.61
2018-12-21T12:00:42.056Z,66.51
2018-12-21T12:01:44.516Z,66.66
2018-12-21T12:02:47.316Z,66.13
2018-12-21T12:03:50.133Z,66.30
2018-12-21T12:04:52.602Z,66.51
2018-12-21T12:05:55.063Z,65.92
2018-12-21T12:06:57.528Z,66.42
2018-12-21T12:08:00.815Z,65.82
2018-12-21T12:09:06.301Z,66.01
2018-12-21T12:10:09.193Z,65.98
2018-12-21T12:11:11.638Z,65.70
2018-12-21T12:12:14.079Z,66.05
2018-12-21T12:13:16.576Z,65.81
2018-12-21T12:14:19.044Z,65.52
2018-12-21T12:15:22.346Z,65.44
2018-12-21T12:16:24.810Z,64.95
2018-12-21T12:17:27.375Z,65.21
2018-12-21T12:19:48.860Z,64.80
2018-12-21T12:20:51.816Z,65.01
2018-12-21T12:21:54.295Z,64.90
2018-12-21T12:22:57.022Z,64.59
2018-12-21T12:23:59.811Z,64.63
2018-12-21T12:25:02.289Z,64.46
2018-12-21T12:26:05.534Z,64.27
2018-12-21T12:27:13.331Z,64.25
2018-12-21T12:28:16.571Z,64.14
2018-12-21T12:29:26.146Z,63.75
2018-12-21T12:30:31.957Z,63.84
2018-12-21T12:31:35.032Z,64.33
2018-12-21T12:32:37.477Z,64.41
2018-12-21T12:33:42.546Z,64.51
2018-12-21T12:34:46.554Z,63.82
2018-12-21T12:35:49.899Z,63.93
2018-12-21T12:36:52.528Z,64.21
2018-12-21T12:37:55.004Z,64.54
2018-12-21T12:39:00.711Z,63.99
2018-12-21T12:40:03.895Z,64.17
2018-12-21T12:41:07.013Z,64.05
2018-12-21T12:42:09.734Z,63.80
2018-12-21T12:43:12.799Z,63.88
2018-12-21T12:44:15.817Z,63.17
2018-12-21T12:45:18.280Z,63.41
2018-12-21T12:46:21.382Z,63.35
2018-12-21T12:47:24.286Z,63.38
2018-12-21T12:48:26.746Z,63.18
2018-12-21T12:49:29.208Z,63.40
2018-12-21T12:50:31.663Z,63.21
2018-12-21T12:51:34.123Z,63.35
2018-12-21T12:52:36.595Z,63.67
2018-12-21T12:53:39.245Z,63.88
2018-12-21T12:54:41.737Z,63.75
2018-12-21T12:55:44.194Z,63.79
2018-12-21T12:56:46.668Z,63.82
2018-12-21T12:57:49.152Z,64.42
2018-12-21T12:58:51.901Z,64.60
2018-12-21T12:59:54.345Z,64.47
2018-12-21T13:00:56.817Z,64.99
2018-12-21T13:01:59.304Z,65.11
2018-12-21T13:03:01.841Z,64.90
2018-12-21T13:04:04.380Z,64.83
2018-12-21T13:05:07.597Z,64.60
2018-12-21T13:06:10.113Z,64.83
2018-12-21T13:07:12.676Z,64.60
2018-12-21T13:08:15.131Z,65.16
2018-12-21T13:09:17.601Z,65.46
2018-12-21T13:10:20.064Z,65.36
2018-12-21T13:11:22.531Z,65.42
2018-12-21T13:12:25.012Z,65.26
2018-12-21T13:13:27.572Z,65.05
2018-12-21T13:14:30.048Z,64.93
2018-12-21T13:15:32.501Z,64.99
2018-12-21T13:16:35.006Z,64.52
2018-12-21T13:17:37.484Z,64.45
2018-12-21T13:18:40.040Z,64.17
2018-12-21T13:19:42.511Z,63.94
2018-12-21T13:20:44.948Z,63.74
2018-12-21T13:21:47.443Z,63.26
2018-12-21T13:22:50.105Z,63.35
2018-12-21T13:23:52.541Z,62.66
2018-12-21T13:24:55.066Z,62.73
2018-12-21T13:25:57.571Z,62.48
2018-12-21T13:27:00.043Z,62.27
2018-12-21T13:28:02.499Z,62.59
2018-12-21T13:29:05.008Z,62.97